UKHH/HRK METAR and TAF weather

Enter ICAO airport designator
Station Type Date Time Source
UKHH METAR 2019/11/14 04:00 UTC NOAA

UKHH 140400Z 12007MPS 9999 BKN011 05/03 Q1027 R07/0///81 NOSIG


Station Type Date Time Source
UKHH Decoded METAR 2019/11/14 04:00 UTC NOAA

Kharkiv, Ukraine (UKHH) 49-58N 036-08E 155M
Nov 13, 2019 - 11:00 PM EST / 2019.11.14 0400 UTC
Wind: from the ESE (120 degrees) at 16 MPH (14 KT):0
Visibility: greater than 7 mile(s):0
Sky conditions: mostly cloudy
Temperature: 41 F (5 C)
Dew Point: 37 F (3 C)
Relative Humidity: 86%
Pressure (altimeter): 30.33 in. Hg (1027 hPa)
ob: UKHH 140400Z 12007MPS 9999 BKN011 05/03 Q1027 R07/0///81 NOSIG
cycle: 4

Station Type Date Time Source
UKHH TAF 2019/11/13 22:12 UTC NOAA

TAF
AMD TAF
AMD UKHH 132210Z 1322/1418 12007G12MPS 2100 BR BKN004 TX08/1412Z TN04/1403Z PROB40
TEMPO 1322/1406 11009G16MPS 1100 BKN003
BECMG 1406/1407 12009G16MPS 9999 NSW BKN007

Example: see airport list